sensor_id;sensor_type;location;lat;lon;timestamp;P1;durP1;ratioP1;P2;durP2;ratioP2
54408;SDS011;40315;48.620;9.828;2023-08-08T00:01:18;2.38;;;1.60;;
54408;SDS011;40315;48.620;9.828;2023-08-08T00:03:47;2.03;;;1.60;;
54408;SDS011;40315;48.620;9.828;2023-08-08T00:06:16;1.85;;;1.50;;
54408;SDS011;40315;48.620;9.828;2023-08-08T00:08:46;1.75;;;1.50;;
54408;SDS011;40315;48.620;9.828;2023-08-08T00:11:15;1.88;;;1.50;;
54408;SDS011;40315;48.620;9.828;2023-08-08T00:13:42;2.08;;;1.50;;
54408;SDS011;40315;48.620;9.828;2023-08-08T00:16:09;1.85;;;1.58;;
54408;SDS011;40315;48.620;9.828;2023-08-08T00:18:37;2.40;;;1.67;;
54408;SDS011;40315;48.620;9.828;2023-08-08T00:21:07;1.90;;;1.70;;
54408;SDS011;40315;48.620;9.828;2023-08-08T00:23:36;2.35;;;1.80;;
54408;SDS011;40315;48.620;9.828;2023-08-08T00:26:03;1.85;;;1.50;;
54408;SDS011;40315;48.620;9.828;2023-08-08T00:28:30;2.63;;;1.77;;
54408;SDS011;40315;48.620;9.828;2023-08-08T00:30:57;1.55;;;1.40;;
54408;SDS011;40315;48.620;9.828;2023-08-08T00:33:24;3.08;;;1.75;;
54408;SDS011;40315;48.620;9.828;2023-08-08T00:35:52;2.67;;;1.70;;
54408;SDS011;40315;48.620;9.828;2023-08-08T00:38:19;1.85;;;1.40;;
54408;SDS011;40315;48.620;9.828;2023-08-08T00:40:46;3.42;;;1.52;;
54408;SDS011;40315;48.620;9.828;2023-08-08T00:43:13;1.73;;;1.30;;
54408;SDS011;40315;48.620;9.828;2023-08-08T00:45:40;3.58;;;1.50;;
54408;SDS011;40315;48.620;9.828;2023-08-08T00:48:11;1.95;;;1.70;;
54408;SDS011;40315;48.620;9.828;2023-08-08T00:50:42;2.13;;;1.73;;
54408;SDS011;40315;48.620;9.828;2023-08-08T00:53:13;2.53;;;1.60;;
54408;SDS011;40315;48.620;9.828;2023-08-08T00:55:44;4.72;;;2.03;;
54408;SDS011;40315;48.620;9.828;2023-08-08T00:58:11;2.17;;;1.60;;
54408;SDS011;40315;48.620;9.828;2023-08-08T01:03:15;4.20;;;1.58;;
54408;SDS011;40315;48.620;9.828;2023-08-08T01:05:43;2.30;;;1.95;;
54408;SDS011;40315;48.620;9.828;2023-08-08T01:08:16;1.90;;;1.60;;
54408;SDS011;40315;48.620;9.828;2023-08-08T01:10:48;1.58;;;1.45;;
54408;SDS011;40315;48.620;9.828;2023-08-08T01:13:17;1.60;;;1.50;;
54408;SDS011;40315;48.620;9.828;2023-08-08T01:15:48;1.80;;;1.50;;
54408;SDS011;40315;48.620;9.828;2023-08-08T01:18:16;2.13;;;1.65;;
54408;SDS011;40315;48.620;9.828;2023-08-08T01:20:45;1.55;;;1.25;;
54408;SDS011;40315;48.620;9.828;2023-08-08T01:23:14;2.85;;;1.33;;
54408;SDS011;40315;48.620;9.828;2023-08-08T01:25:49;2.08;;;1.52;;
54408;SDS011;40315;48.620;9.828;2023-08-08T01:28:19;3.17;;;1.70;;
54408;SDS011;40315;48.620;9.828;2023-08-08T01:30:47;3.22;;;1.73;;
54408;SDS011;40315;48.620;9.828;2023-08-08T01:33:17;2.90;;;1.70;;
54408;SDS011;40315;48.620;9.828;2023-08-08T01:35:45;3.97;;;1.85;;
54408;SDS011;40315;48.620;9.828;2023-08-08T01:38:17;2.88;;;1.80;;
54408;SDS011;40315;48.620;9.828;2023-08-08T01:40:51;1.65;;;1.50;;
54408;SDS011;40315;48.620;9.828;2023-08-08T01:43:18;2.00;;;1.80;;
54408;SDS011;40315;48.620;9.828;2023-08-08T01:45:47;2.50;;;2.00;;
54408;SDS011;40315;48.620;9.828;2023-08-08T01:54:59;3.97;;;1.77;;
54408;SDS011;40315;48.620;9.828;2023-08-08T01:57:27;3.15;;;1.73;;
54408;SDS011;40315;48.620;9.828;2023-08-08T01:59:58;2.03;;;1.60;;
54408;SDS011;40315;48.620;9.828;2023-08-08T02:02:25;2.88;;;1.52;;
54408;SDS011;40315;48.620;9.828;2023-08-08T02:04:54;1.92;;;1.60;;
54408;SDS011;40315;48.620;9.828;2023-08-08T02:07:21;2.83;;;1.75;;
54408;SDS011;40315;48.620;9.828;2023-08-08T02:09:50;2.45;;;1.77;;
54408;SDS011;40315;48.620;9.828;2023-08-08T02:12:17;3.03;;;1.60;;
54408;SDS011;40315;48.620;9.828;2023-08-08T02:14:45;1.70;;;1.60;;
54408;SDS011;40315;48.620;9.828;2023-08-08T02:17:12;2.75;;;1.60;;
54408;SDS011;40315;48.620;9.828;2023-08-08T02:19:39;2.75;;;1.80;;
54408;SDS011;40315;48.620;9.828;2023-08-08T02:22:06;3.85;;;1.80;;
54408;SDS011;40315;48.620;9.828;2023-08-08T02:24:36;1.80;;;1.52;;
54408;SDS011;40315;48.620;9.828;2023-08-08T02:27:03;1.88;;;1.52;;
54408;SDS011;40315;48.620;9.828;2023-08-08T02:29:30;2.17;;;1.65;;
54408;SDS011;40315;48.620;9.828;2023-08-08T02:32:00;2.40;;;1.50;;
54408;SDS011;40315;48.620;9.828;2023-08-08T02:34:27;3.03;;;1.60;;
54408;SDS011;40315;48.620;9.828;2023-08-08T02:36:55;1.70;;;1.60;;
54408;SDS011;40315;48.620;9.828;2023-08-08T02:39:22;2.22;;;1.50;;
54408;SDS011;40315;48.620;9.828;2023-08-08T02:41:49;1.63;;;1.45;;
54408;SDS011;40315;48.620;9.828;2023-08-08T02:44:16;2.42;;;1.70;;
54408;SDS011;40315;48.620;9.828;2023-08-08T02:46:45;2.97;;;1.83;;
54408;SDS011;40315;48.620;9.828;2023-08-08T02:49:13;2.83;;;1.90;;
54408;SDS011;40315;48.620;9.828;2023-08-08T02:51:40;2.15;;;1.70;;
54408;SDS011;40315;48.620;9.828;2023-08-08T02:54:10;2.28;;;1.73;;
54408;SDS011;40315;48.620;9.828;2023-08-08T02:56:40;2.20;;;1.48;;
54408;SDS011;40315;48.620;9.828;2023-08-08T02:59:08;2.60;;;1.70;;
54408;SDS011;40315;48.620;9.828;2023-08-08T03:01:37;2.28;;;1.67;;
54408;SDS011;40315;48.620;9.828;2023-08-08T03:04:12;3.55;;;1.55;;
54408;SDS011;40315;48.620;9.828;2023-08-08T03:06:40;3.38;;;1.50;;
54408;SDS011;40315;48.620;9.828;2023-08-08T03:09:07;1.50;;;1.40;;
54408;SDS011;40315;48.620;9.828;2023-08-08T03:11:36;1.98;;;1.77;;
54408;SDS011;40315;48.620;9.828;2023-08-08T03:16:40;1.52;;;1.42;;
54408;SDS011;40315;48.620;9.828;2023-08-08T03:19:08;1.92;;;1.67;;
54408;SDS011;40315;48.620;9.828;2023-08-08T03:21:39;5.75;;;2.15;;
54408;SDS011;40315;48.620;9.828;2023-08-08T03:24:06;2.40;;;1.70;;
54408;SDS011;40315;48.620;9.828;2023-08-08T03:26:33;2.25;;;1.80;;
54408;SDS011;40315;48.620;9.828;2023-08-08T03:29:00;2.40;;;1.60;;
54408;SDS011;40315;48.620;9.828;2023-08-08T03:31:38;2.05;;;1.50;;
54408;SDS011;40315;48.620;9.828;2023-08-08T03:34:06;3.72;;;1.80;;
54408;SDS011;40315;48.620;9.828;2023-08-08T03:36:34;2.08;;;1.85;;
54408;SDS011;40315;48.620;9.828;2023-08-08T03:39:02;3.22;;;1.70;;
54408;SDS011;40315;48.620;9.828;2023-08-08T03:41:30;1.63;;;1.38;;
54408;SDS011;40315;48.620;9.828;2023-08-08T03:43:57;2.13;;;1.55;;
54408;SDS011;40315;48.620;9.828;2023-08-08T03:46:26;3.38;;;1.92;;
54408;SDS011;40315;48.620;9.828;2023-08-08T03:48:53;3.58;;;1.95;;
54408;SDS011;40315;48.620;9.828;2023-08-08T03:51:20;5.50;;;2.10;;
54408;SDS011;40315;48.620;9.828;2023-08-08T03:53:48;2.60;;;1.80;;
54408;SDS011;40315;48.620;9.828;2023-08-08T03:56:16;4.13;;;2.08;;
54408;SDS011;40315;48.620;9.828;2023-08-08T03:58:43;2.60;;;1.98;;
54408;SDS011;40315;48.620;9.828;2023-08-08T04:01:10;3.25;;;1.92;;
54408;SDS011;40315;48.620;9.828;2023-08-08T04:03:39;3.90;;;2.00;;
54408;SDS011;40315;48.620;9.828;2023-08-08T04:06:06;2.15;;;1.75;;
54408;SDS011;40315;48.620;9.828;2023-08-08T04:08:33;2.30;;;2.10;;
54408;SDS011;40315;48.620;9.828;2023-08-08T04:11:00;2.65;;;1.95;;
54408;SDS011;40315;48.620;9.828;2023-08-08T04:13:29;1.90;;;1.70;;
54408;SDS011;40315;48.620;9.828;2023-08-08T04:15:59;2.90;;;1.85;;
54408;SDS011;40315;48.620;9.828;2023-08-08T04:18:28;3.78;;;1.85;;
54408;SDS011;40315;48.620;9.828;2023-08-08T04:20:55;2.47;;;1.98;;
54408;SDS011;40315;48.620;9.828;2023-08-08T04:23:23;2.17;;;1.83;;
54408;SDS011;40315;48.620;9.828;2023-08-08T04:25:51;1.70;;;1.50;;
54408;SDS011;40315;48.620;9.828;2023-08-08T04:28:20;2.08;;;1.88;;
54408;SDS011;40315;48.620;9.828;2023-08-08T04:30:48;2.55;;;1.70;;
54408;SDS011;40315;48.620;9.828;2023-08-08T04:33:15;2.35;;;1.63;;
54408;SDS011;40315;48.620;9.828;2023-08-08T04:35:44;3.65;;;2.20;;
54408;SDS011;40315;48.620;9.828;2023-08-08T04:38:13;2.88;;;1.70;;
54408;SDS011;40315;48.620;9.828;2023-08-08T04:40:42;2.30;;;1.70;;
54408;SDS011;40315;48.620;9.828;2023-08-08T04:43:09;1.65;;;1.55;;
54408;SDS011;40315;48.620;9.828;2023-08-08T04:45:36;2.22;;;1.90;;
54408;SDS011;40315;48.620;9.828;2023-08-08T04:48:07;2.45;;;1.63;;
54408;SDS011;40315;48.620;9.828;2023-08-08T04:50:36;2.30;;;1.58;;
54408;SDS011;40315;48.620;9.828;2023-08-08T04:53:04;5.85;;;1.65;;
54408;SDS011;40315;48.620;9.828;2023-08-08T04:55:33;5.18;;;2.00;;
54408;SDS011;40315;48.620;9.828;2023-08-08T04:58:00;2.72;;;1.65;;
54408;SDS011;40315;48.620;9.828;2023-08-08T05:00:27;3.13;;;1.67;;
54408;SDS011;40315;48.620;9.828;2023-08-08T05:02:56;2.10;;;1.63;;
54408;SDS011;40315;48.620;9.828;2023-08-08T05:05:25;1.92;;;1.60;;
54408;SDS011;40315;48.620;9.828;2023-08-08T05:07:52;2.00;;;1.70;;
54408;SDS011;40315;48.620;9.828;2023-08-08T05:10:21;2.03;;;1.83;;
54408;SDS011;40315;48.620;9.828;2023-08-08T05:12:48;2.45;;;1.80;;
54408;SDS011;40315;48.620;9.828;2023-08-08T05:15:15;1.70;;;1.42;;
54408;SDS011;40315;48.620;9.828;2023-08-08T05:17:42;1.60;;;1.50;;
54408;SDS011;40315;48.620;9.828;2023-08-08T05:20:09;1.65;;;1.40;;
54408;SDS011;40315;48.620;9.828;2023-08-08T05:22:38;2.47;;;1.45;;
54408;SDS011;40315;48.620;9.828;2023-08-08T05:25:08;1.98;;;1.70;;
54408;SDS011;40315;48.620;9.828;2023-08-08T05:27:35;2.08;;;1.55;;
54408;SDS011;40315;48.620;9.828;2023-08-08T05:30:05;2.10;;;1.65;;
54408;SDS011;40315;48.620;9.828;2023-08-08T05:32:35;2.00;;;1.45;;
54408;SDS011;40315;48.620;9.828;2023-08-08T05:35:02;2.22;;;1.45;;
54408;SDS011;40315;48.620;9.828;2023-08-08T05:37:30;4.00;;;1.58;;
54408;SDS011;40315;48.620;9.828;2023-08-08T05:39:58;1.90;;;1.70;;
54408;SDS011;40315;48.620;9.828;2023-08-08T05:42:25;2.33;;;1.58;;
54408;SDS011;40315;48.620;9.828;2023-08-08T05:44:52;2.22;;;1.50;;
54408;SDS011;40315;48.620;9.828;2023-08-08T05:47:19;2.42;;;1.58;;
54408;SDS011;40315;48.620;9.828;2023-08-08T05:49:46;2.13;;;1.60;;
54408;SDS011;40315;48.620;9.828;2023-08-08T05:52:13;2.42;;;1.80;;
54408;SDS011;40315;48.620;9.828;2023-08-08T05:54:42;2.17;;;1.52;;
54408;SDS011;40315;48.620;9.828;2023-08-08T05:57:11;2.00;;;1.30;;
54408;SDS011;40315;48.620;9.828;2023-08-08T05:59:37;2.03;;;1.40;;
54408;SDS011;40315;48.620;9.828;2023-08-08T06:02:06;3.42;;;1.38;;
54408;SDS011;40315;48.620;9.828;2023-08-08T06:04:33;1.60;;;1.40;;
54408;SDS011;40315;48.620;9.828;2023-08-08T06:06:59;1.35;;;1.20;;
54408;SDS011;40315;48.620;9.828;2023-08-08T06:09:26;1.70;;;1.10;;
54408;SDS011;40315;48.620;9.828;2023-08-08T06:11:54;1.45;;;1.27;;
54408;SDS011;40315;48.620;9.828;2023-08-08T06:14:22;2.22;;;1.30;;
54408;SDS011;40315;48.620;9.828;2023-08-08T06:16:49;1.65;;;1.23;;
54408;SDS011;40315;48.620;9.828;2023-08-08T06:19:16;1.35;;;1.05;;
54408;SDS011;40315;48.620;9.828;2023-08-08T06:21:43;2.35;;;1.13;;
54408;SDS011;40315;48.620;9.828;2023-08-08T06:24:10;1.90;;;1.10;;
54408;SDS011;40315;48.620;9.828;2023-08-08T06:26:37;2.70;;;1.35;;
54408;SDS011;40315;48.620;9.828;2023-08-08T06:29:04;2.78;;;1.10;;
54408;SDS011;40315;48.620;9.828;2023-08-08T06:31:32;1.50;;;1.40;;
54408;SDS011;40315;48.620;9.828;2023-08-08T06:34:01;2.50;;;1.25;;
54408;SDS011;40315;48.620;9.828;2023-08-08T06:36:28;1.77;;;1.33;;
54408;SDS011;40315;48.620;9.828;2023-08-08T06:38:55;1.27;;;1.17;;
54408;SDS011;40315;48.620;9.828;2023-08-08T06:41:22;2.30;;;1.30;;
54408;SDS011;40315;48.620;9.828;2023-08-08T06:43:49;2.15;;;1.00;;
54408;SDS011;40315;48.620;9.828;2023-08-08T06:46:17;2.88;;;1.23;;
54408;SDS011;40315;48.620;9.828;2023-08-08T06:48:46;2.38;;;1.50;;
54408;SDS011;40315;48.620;9.828;2023-08-08T06:51:15;1.58;;;1.40;;
54408;SDS011;40315;48.620;9.828;2023-08-08T06:53:42;3.50;;;1.40;;
54408;SDS011;40315;48.620;9.828;2023-08-08T06:56:11;1.73;;;1.10;;
54408;SDS011;40315;48.620;9.828;2023-08-08T06:58:38;1.85;;;1.02;;
54408;SDS011;40315;48.620;9.828;2023-08-08T07:01:05;2.00;;;1.30;;
54408;SDS011;40315;48.620;9.828;2023-08-08T07:03:33;1.75;;;1.30;;
54408;SDS011;40315;48.620;9.828;2023-08-08T07:06:03;3.50;;;1.60;;
54408;SDS011;40315;48.620;9.828;2023-08-08T07:08:31;1.58;;;1.48;;
54408;SDS011;40315;48.620;9.828;2023-08-08T07:10:58;2.80;;;1.30;;
54408;SDS011;40315;48.620;9.828;2023-08-08T07:13:25;3.00;;;1.65;;
54408;SDS011;40315;48.620;9.828;2023-08-08T07:15:52;2.55;;;1.10;;
54408;SDS011;40315;48.620;9.828;2023-08-08T07:18:19;2.00;;;1.20;;
54408;SDS011;40315;48.620;9.828;2023-08-08T07:20:46;1.80;;;1.27;;
54408;SDS011;40315;48.620;9.828;2023-08-08T07:23:16;2.45;;;1.27;;
54408;SDS011;40315;48.620;9.828;2023-08-08T07:25:43;1.67;;;1.40;;
54408;SDS011;40315;48.620;9.828;2023-08-08T07:28:10;2.30;;;1.30;;
54408;SDS011;40315;48.620;9.828;2023-08-08T07:30:37;2.17;;;1.30;;
54408;SDS011;40315;48.620;9.828;2023-08-08T07:33:06;2.00;;;1.30;;
54408;SDS011;40315;48.620;9.828;2023-08-08T07:35:33;2.60;;;1.23;;
54408;SDS011;40315;48.620;9.828;2023-08-08T07:38:01;1.77;;;1.13;;
54408;SDS011;40315;48.620;9.828;2023-08-08T07:40:32;1.60;;;1.20;;
54408;SDS011;40315;48.620;9.828;2023-08-08T07:42:59;3.13;;;1.63;;
54408;SDS011;40315;48.620;9.828;2023-08-08T07:45:26;1.63;;;1.30;;
54408;SDS011;40315;48.620;9.828;2023-08-08T07:47:52;1.60;;;1.40;;
54408;SDS011;40315;48.620;9.828;2023-08-08T07:50:20;2.17;;;1.33;;
54408;SDS011;40315;48.620;9.828;2023-08-08T07:52:47;2.03;;;1.30;;
54408;SDS011;40315;48.620;9.828;2023-08-08T07:55:14;1.42;;;1.30;;
54408;SDS011;40315;48.620;9.828;2023-08-08T07:57:42;3.58;;;1.35;;
54408;SDS011;40315;48.620;9.828;2023-08-08T08:00:10;2.47;;;1.35;;
54408;SDS011;40315;48.620;9.828;2023-08-08T08:02:37;2.53;;;1.25;;
54408;SDS011;40315;48.620;9.828;2023-08-08T08:05:04;3.47;;;1.30;;
54408;SDS011;40315;48.620;9.828;2023-08-08T08:07:33;2.08;;;1.10;;
54408;SDS011;40315;48.620;9.828;2023-08-08T08:10:01;3.97;;;1.40;;
54408;SDS011;40315;48.620;9.828;2023-08-08T08:12:30;1.70;;;1.40;;
54408;SDS011;40315;48.620;9.828;2023-08-08T08:14:59;1.40;;;1.10;;
54408;SDS011;40315;48.620;9.828;2023-08-08T08:17:26;4.72;;;1.40;;
54408;SDS011;40315;48.620;9.828;2023-08-08T08:19:53;2.25;;;1.15;;
54408;SDS011;40315;48.620;9.828;2023-08-08T08:22:20;3.22;;;1.38;;
54408;SDS011;40315;48.620;9.828;2023-08-08T08:24:47;2.10;;;1.30;;
54408;SDS011;40315;48.620;9.828;2023-08-08T08:27:14;1.35;;;1.13;;
54408;SDS011;40315;48.620;9.828;2023-08-08T08:29:41;2.10;;;1.30;;
54408;SDS011;40315;48.620;9.828;2023-08-08T08:32:09;3.35;;;1.20;;
54408;SDS011;40315;48.620;9.828;2023-08-08T08:34:37;2.58;;;1.40;;
54408;SDS011;40315;48.620;9.828;2023-08-08T08:37:04;1.92;;;1.20;;
54408;SDS011;40315;48.620;9.828;2023-08-08T08:39:31;3.03;;;1.20;;
54408;SDS011;40315;48.620;9.828;2023-08-08T08:41:58;2.30;;;1.50;;
54408;SDS011;40315;48.620;9.828;2023-08-08T08:44:32;2.08;;;1.20;;
54408;SDS011;40315;48.620;9.828;2023-08-08T08:46:59;1.50;;;1.10;;
54408;SDS011;40315;48.620;9.828;2023-08-08T08:49:30;1.83;;;1.10;;
54408;SDS011;40315;48.620;9.828;2023-08-08T08:51:58;3.75;;;1.35;;
54408;SDS011;40315;48.620;9.828;2023-08-08T08:54:26;1.48;;;1.20;;
54408;SDS011;40315;48.620;9.828;2023-08-08T08:56:57;3.13;;;1.30;;
54408;SDS011;40315;48.620;9.828;2023-08-08T08:59:24;1.98;;;1.30;;
54408;SDS011;40315;48.620;9.828;2023-08-08T09:01:51;2.40;;;1.20;;
54408;SDS011;40315;48.620;9.828;2023-08-08T09:04:20;1.75;;;1.30;;
54408;SDS011;40315;48.620;9.828;2023-08-08T09:06:50;2.35;;;1.30;;
54408;SDS011;40315;48.620;9.828;2023-08-08T09:09:17;1.30;;;1.17;;
54408;SDS011;40315;48.620;9.828;2023-08-08T09:11:50;3.00;;;1.40;;
54408;SDS011;40315;48.620;9.828;2023-08-08T09:14:19;2.22;;;1.10;;
54408;SDS011;40315;48.620;9.828;2023-08-08T09:16:47;2.15;;;1.52;;
54408;SDS011;40315;48.620;9.828;2023-08-08T09:19:15;3.13;;;1.25;;
54408;SDS011;40315;48.620;9.828;2023-08-08T09:21:43;1.92;;;1.50;;
54408;SDS011;40315;48.620;9.828;2023-08-08T09:24:11;1.90;;;1.50;;
54408;SDS011;40315;48.620;9.828;2023-08-08T09:26:39;2.53;;;1.60;;
54408;SDS011;40315;48.620;9.828;2023-08-08T09:29:06;2.50;;;1.30;;
54408;SDS011;40315;48.620;9.828;2023-08-08T09:31:34;1.67;;;1.20;;
54408;SDS011;40315;48.620;9.828;2023-08-08T09:34:01;1.90;;;1.30;;
54408;SDS011;40315;48.620;9.828;2023-08-08T09:36:32;2.38;;;1.30;;
54408;SDS011;40315;48.620;9.828;2023-08-08T09:39:02;3.35;;;1.10;;
54408;SDS011;40315;48.620;9.828;2023-08-08T09:41:31;2.22;;;1.35;;
54408;SDS011;40315;48.620;9.828;2023-08-08T09:43:58;1.60;;;1.38;;
54408;SDS011;40315;48.620;9.828;2023-08-08T09:46:29;2.03;;;1.33;;
54408;SDS011;40315;48.620;9.828;2023-08-08T09:48:57;1.63;;;1.38;;
54408;SDS011;40315;48.620;9.828;2023-08-08T09:51:24;3.20;;;1.63;;
54408;SDS011;40315;48.620;9.828;2023-08-08T09:53:52;2.30;;;1.30;;
54408;SDS011;40315;48.620;9.828;2023-08-08T09:56:20;2.20;;;1.45;;
54408;SDS011;40315;48.620;9.828;2023-08-08T09:58:49;1.90;;;1.40;;
54408;SDS011;40315;48.620;9.828;2023-08-08T10:01:17;1.70;;;1.38;;
54408;SDS011;40315;48.620;9.828;2023-08-08T10:03:46;2.97;;;1.40;;
54408;SDS011;40315;48.620;9.828;2023-08-08T10:06:14;1.75;;;1.40;;
54408;SDS011;40315;48.620;9.828;2023-08-08T10:08:41;1.73;;;1.20;;
54408;SDS011;40315;48.620;9.828;2023-08-08T10:11:09;1.10;;;1.00;;
54408;SDS011;40315;48.620;9.828;2023-08-08T10:13:46;1.48;;;1.10;;
54408;SDS011;40315;48.620;9.828;2023-08-08T10:16:16;3.03;;;1.30;;
54408;SDS011;40315;48.620;9.828;2023-08-08T10:18:43;2.78;;;1.10;;
54408;SDS011;40315;48.620;9.828;2023-08-08T10:21:11;2.85;;;1.20;;
54408;SDS011;40315;48.620;9.828;2023-08-08T10:23:39;1.92;;;1.38;;
54408;SDS011;40315;48.620;9.828;2023-08-08T10:26:16;3.13;;;1.30;;
54408;SDS011;40315;48.620;9.828;2023-08-08T10:28:54;2.28;;;1.10;;
54408;SDS011;40315;48.620;9.828;2023-08-08T10:31:23;2.22;;;1.27;;
54408;SDS011;40315;48.620;9.828;2023-08-08T10:34:00;3.80;;;1.60;;
54408;SDS011;40315;48.620;9.828;2023-08-08T10:36:42;1.65;;;1.20;;
54408;SDS011;40315;48.620;9.828;2023-08-08T10:39:11;1.73;;;1.38;;
54408;SDS011;40315;48.620;9.828;2023-08-08T10:41:45;1.42;;;1.33;;
54408;SDS011;40315;48.620;9.828;2023-08-08T10:44:20;1.42;;;1.23;;
54408;SDS011;40315;48.620;9.828;2023-08-08T10:46:49;2.60;;;1.50;;
54408;SDS011;40315;48.620;9.828;2023-08-08T10:49:17;2.25;;;1.27;;
54408;SDS011;40315;48.620;9.828;2023-08-08T10:51:48;2.10;;;1.40;;
54408;SDS011;40315;48.620;9.828;2023-08-08T10:54:19;2.67;;;1.23;;
54408;SDS011;40315;48.620;9.828;2023-08-08T10:56:52;2.50;;;1.33;;
54408;SDS011;40315;48.620;9.828;2023-08-08T10:59:23;1.83;;;1.33;;
54408;SDS011;40315;48.620;9.828;2023-08-08T11:01:53;1.40;;;1.20;;
54408;SDS011;40315;48.620;9.828;2023-08-08T11:04:22;1.83;;;1.10;;
54408;SDS011;40315;48.620;9.828;2023-08-08T11:06:52;1.55;;;1.02;;
54408;SDS011;40315;48.620;9.828;2023-08-08T11:09:21;1.83;;;1.10;;
54408;SDS011;40315;48.620;9.828;2023-08-08T11:11:48;2.42;;;1.20;;
54408;SDS011;40315;48.620;9.828;2023-08-08T11:14:15;2.25;;;1.10;;
54408;SDS011;40315;48.620;9.828;2023-08-08T11:16:45;2.08;;;1.13;;
54408;SDS011;40315;48.620;9.828;2023-08-08T11:19:13;1.30;;;1.00;;
54408;SDS011;40315;48.620;9.828;2023-08-08T11:21:41;1.60;;;1.10;;
54408;SDS011;40315;48.620;9.828;2023-08-08T11:24:09;1.27;;;1.17;;
54408;SDS011;40315;48.620;9.828;2023-08-08T11:26:38;1.73;;;1.35;;
54408;SDS011;40315;48.620;9.828;2023-08-08T11:29:07;1.80;;;1.08;;
54408;SDS011;40315;48.620;9.828;2023-08-08T11:31:34;1.45;;;1.10;;
54408;SDS011;40315;48.620;9.828;2023-08-08T11:34:03;2.97;;;1.20;;
54408;SDS011;40315;48.620;9.828;2023-08-08T11:36:31;2.42;;;1.27;;
54408;SDS011;40315;48.620;9.828;2023-08-08T11:38:59;1.25;;;1.15;;
54408;SDS011;40315;48.620;9.828;2023-08-08T11:41:35;1.63;;;1.05;;
54408;SDS011;40315;48.620;9.828;2023-08-08T11:44:03;2.35;;;1.17;;
54408;SDS011;40315;48.620;9.828;2023-08-08T11:46:32;1.83;;;1.05;;
54408;SDS011;40315;48.620;9.828;2023-08-08T11:49:03;2.58;;;1.50;;
54408;SDS011;40315;48.620;9.828;2023-08-08T11:51:32;1.63;;;1.10;;
54408;SDS011;40315;48.620;9.828;2023-08-08T11:54:01;1.63;;;1.20;;
54408;SDS011;40315;48.620;9.828;2023-08-08T11:56:32;1.33;;;1.00;;
54408;SDS011;40315;48.620;9.828;2023-08-08T11:59:00;2.28;;;1.02;;
54408;SDS011;40315;48.620;9.828;2023-08-08T12:01:28;1.58;;;1.08;;
54408;SDS011;40315;48.620;9.828;2023-08-08T12:03:57;1.80;;;1.17;;
54408;SDS011;40315;48.620;9.828;2023-08-08T12:06:28;2.55;;;1.00;;
54408;SDS011;40315;48.620;9.828;2023-08-08T12:08:56;3.38;;;1.38;;
54408;SDS011;40315;48.620;9.828;2023-08-08T12:11:23;1.08;;;0.95;;
54408;SDS011;40315;48.620;9.828;2023-08-08T12:13:50;1.65;;;1.20;;
54408;SDS011;40315;48.620;9.828;2023-08-08T12:16:17;2.90;;;0.98;;
54408;SDS011;40315;48.620;9.828;2023-08-08T12:18:44;1.38;;;1.10;;
54408;SDS011;40315;48.620;9.828;2023-08-08T12:21:11;1.63;;;1.00;;
54408;SDS011;40315;48.620;9.828;2023-08-08T12:23:41;1.60;;;1.23;;
54408;SDS011;40315;48.620;9.828;2023-08-08T12:26:08;2.08;;;1.30;;
54408;SDS011;40315;48.620;9.828;2023-08-08T12:28:35;3.10;;;1.20;;
54408;SDS011;40315;48.620;9.828;2023-08-08T12:31:03;2.15;;;1.35;;
54408;SDS011;40315;48.620;9.828;2023-08-08T12:33:30;1.40;;;1.08;;
54408;SDS011;40315;48.620;9.828;2023-08-08T12:35:57;1.38;;;1.10;;
54408;SDS011;40315;48.620;9.828;2023-08-08T12:38:24;1.95;;;1.27;;
54408;SDS011;40315;48.620;9.828;2023-08-08T12:40:52;1.60;;;1.10;;
54408;SDS011;40315;48.620;9.828;2023-08-08T12:43:19;3.53;;;1.40;;
54408;SDS011;40315;48.620;9.828;2023-08-08T12:45:46;1.98;;;1.20;;
54408;SDS011;40315;48.620;9.828;2023-08-08T12:48:13;1.85;;;1.25;;
54408;SDS011;40315;48.620;9.828;2023-08-08T12:50:40;1.98;;;1.17;;
54408;SDS011;40315;48.620;9.828;2023-08-08T12:53:07;2.13;;;1.50;;
54408;SDS011;40315;48.620;9.828;2023-08-08T12:55:35;1.83;;;1.20;;
54408;SDS011;40315;48.620;9.828;2023-08-08T12:58:04;3.38;;;1.50;;
54408;SDS011;40315;48.620;9.828;2023-08-08T13:00:31;1.40;;;1.08;;
54408;SDS011;40315;48.620;9.828;2023-08-08T13:03:00;1.83;;;1.30;;
54408;SDS011;40315;48.620;9.828;2023-08-08T13:05:28;1.80;;;1.10;;
54408;SDS011;40315;48.620;9.828;2023-08-08T13:07:55;1.08;;;0.98;;
54408;SDS011;40315;48.620;9.828;2023-08-08T13:10:22;2.65;;;1.30;;
54408;SDS011;40315;48.620;9.828;2023-08-08T13:12:49;1.20;;;1.00;;
54408;SDS011;40315;48.620;9.828;2023-08-08T13:15:21;1.90;;;1.30;;
54408;SDS011;40315;48.620;9.828;2023-08-08T13:17:48;1.35;;;1.10;;
54408;SDS011;40315;48.620;9.828;2023-08-08T13:20:15;1.48;;;1.38;;
54408;SDS011;40315;48.620;9.828;2023-08-08T13:22:42;1.85;;;1.20;;
54408;SDS011;40315;48.620;9.828;2023-08-08T13:25:09;1.65;;;1.10;;
54408;SDS011;40315;48.620;9.828;2023-08-08T13:27:36;1.52;;;1.13;;
54408;SDS011;40315;48.620;9.828;2023-08-08T13:30:03;1.20;;;1.10;;
54408;SDS011;40315;48.620;9.828;2023-08-08T13:32:33;2.15;;;1.30;;
54408;SDS011;40315;48.620;9.828;2023-08-08T13:35:00;2.03;;;1.20;;
54408;SDS011;40315;48.620;9.828;2023-08-08T13:37:27;2.63;;;1.30;;
54408;SDS011;40315;48.620;9.828;2023-08-08T13:39:54;1.38;;;1.27;;
54408;SDS011;40315;48.620;9.828;2023-08-08T13:42:21;1.45;;;1.17;;
54408;SDS011;40315;48.620;9.828;2023-08-08T13:44:50;3.08;;;1.05;;
54408;SDS011;40315;48.620;9.828;2023-08-08T13:47:20;1.27;;;0.93;;
54408;SDS011;40315;48.620;9.828;2023-08-08T13:49:48;1.75;;;1.00;;
54408;SDS011;40315;48.620;9.828;2023-08-08T13:52:15;2.05;;;1.10;;
54408;SDS011;40315;48.620;9.828;2023-08-08T13:54:42;2.50;;;1.27;;
54408;SDS011;40315;48.620;9.828;2023-08-08T13:57:09;1.40;;;1.15;;
54408;SDS011;40315;48.620;9.828;2023-08-08T13:59:36;1.80;;;1.35;;
54408;SDS011;40315;48.620;9.828;2023-08-08T14:02:03;1.77;;;1.20;;
54408;SDS011;40315;48.620;9.828;2023-08-08T14:04:30;1.58;;;1.20;;
54408;SDS011;40315;48.620;9.828;2023-08-08T14:06:58;1.98;;;1.40;;
54408;SDS011;40315;48.620;9.828;2023-08-08T14:09:25;2.72;;;1.20;;
54408;SDS011;40315;48.620;9.828;2023-08-08T14:11:52;2.50;;;1.40;;
54408;SDS011;40315;48.620;9.828;2023-08-08T14:14:19;1.30;;;1.13;;
54408;SDS011;40315;48.620;9.828;2023-08-08T14:16:46;1.75;;;1.25;;
54408;SDS011;40315;48.620;9.828;2023-08-08T14:19:13;1.60;;;1.10;;
54408;SDS011;40315;48.620;9.828;2023-08-08T14:21:42;1.67;;;1.30;;
54408;SDS011;40315;48.620;9.828;2023-08-08T14:24:10;2.17;;;1.30;;
54408;SDS011;40315;48.620;9.828;2023-08-08T14:26:37;1.48;;;1.20;;
54408;SDS011;40315;48.620;9.828;2023-08-08T14:29:04;4.68;;;1.35;;
54408;SDS011;40315;48.620;9.828;2023-08-08T14:31:31;1.90;;;1.25;;
54408;SDS011;40315;48.620;9.828;2023-08-08T14:33:58;2.78;;;1.20;;
54408;SDS011;40315;48.620;9.828;2023-08-08T14:36:25;1.48;;;1.30;;
54408;SDS011;40315;48.620;9.828;2023-08-08T14:38:52;1.50;;;1.20;;
54408;SDS011;40315;48.620;9.828;2023-08-08T14:41:23;1.70;;;1.30;;
54408;SDS011;40315;48.620;9.828;2023-08-08T14:43:50;1.65;;;1.23;;
54408;SDS011;40315;48.620;9.828;2023-08-08T14:46:17;1.35;;;1.20;;
54408;SDS011;40315;48.620;9.828;2023-08-08T14:48:44;1.60;;;1.13;;
54408;SDS011;40315;48.620;9.828;2023-08-08T14:51:11;2.08;;;1.05;;
54408;SDS011;40315;48.620;9.828;2023-08-08T14:53:41;1.20;;;1.10;;
54408;SDS011;40315;48.620;9.828;2023-08-08T14:56:08;3.90;;;1.30;;
54408;SDS011;40315;48.620;9.828;2023-08-08T14:58:37;1.83;;;1.30;;
54408;SDS011;40315;48.620;9.828;2023-08-08T15:01:04;1.33;;;1.02;;
54408;SDS011;40315;48.620;9.828;2023-08-08T15:03:33;3.10;;;1.30;;
54408;SDS011;40315;48.620;9.828;2023-08-08T15:06:00;1.45;;;1.20;;